createdAt,value
2017-06-10T00:00:12.831Z,3432
2017-06-10T00:01:17.983Z,3424
2017-06-10T00:02:21.435Z,3404
2017-06-10T00:03:24.126Z,3380
2017-06-10T00:04:27.584Z,3364
2017-06-10T00:05:30.958Z,3344
2017-06-10T00:06:33.553Z,3324
2017-06-10T00:07:36.336Z,3308
2017-06-10T00:08:38.920Z,3296
2017-06-10T00:09:41.522Z,3284
2017-06-10T00:10:44.667Z,3272
2017-06-10T00:11:47.287Z,3268
2017-06-10T00:12:49.919Z,3264
2017-06-10T00:13:52.539Z,3268
2017-06-10T00:14:55.156Z,3272
2017-06-10T00:15:58.143Z,3272
2017-06-10T00:17:01.041Z,3272
2017-06-10T00:18:03.919Z,3256
2017-06-10T00:19:06.618Z,3244
2017-06-10T00:20:11.005Z,3224
2017-06-10T00:21:13.928Z,3200
2017-06-10T00:22:16.845Z,3172
2017-06-10T00:23:19.721Z,3152
2017-06-10T00:24:23.293Z,3128
2017-06-10T00:25:26.056Z,3096
2017-06-10T00:26:28.999Z,3068
2017-06-10T00:27:31.762Z,3040
2017-06-10T00:28:34.285Z,3012
2017-06-10T00:29:36.820Z,2984
2017-06-10T00:30:39.438Z,2964
2017-06-10T00:31:42.131Z,2936
2017-06-10T00:32:44.719Z,2912
2017-06-10T00:33:48.020Z,2884
2017-06-10T00:34:50.583Z,2860
2017-06-10T00:35:54.107Z,2836
2017-06-10T00:36:56.885Z,2820
2017-06-10T00:37:59.737Z,2800
2017-06-10T00:39:02.604Z,2784
2017-06-10T00:40:05.433Z,2772
2017-06-10T00:41:07.948Z,2760
2017-06-10T00:42:10.541Z,2752
2017-06-10T00:43:13.079Z,2740
2017-06-10T00:44:16.286Z,2736
2017-06-10T00:45:19.603Z,2728
2017-06-10T00:46:22.492Z,2716
2017-06-10T00:47:25.251Z,2712
2017-06-10T00:48:28.073Z,2704
2017-06-10T00:49:30.845Z,2692
2017-06-10T00:50:33.671Z,2688
2017-06-10T00:51:36.921Z,2676
2017-06-10T00:52:39.732Z,2668
2017-06-10T00:53:42.293Z,2656
2017-06-10T00:54:44.915Z,2644
2017-06-10T00:55:48.500Z,2632
2017-06-10T00:56:52.858Z,2616
2017-06-10T00:57:55.821Z,2608
2017-06-10T00:58:58.534Z,2592
2017-06-10T01:00:01.444Z,2580
2017-06-10T01:01:06.865Z,2568
2017-06-10T01:02:12.986Z,2556
2017-06-10T01:03:15.382Z,2544
2017-06-10T01:04:17.925Z,2528
2017-06-10T01:05:21.144Z,2520
2017-06-10T01:06:23.818Z,2504
2017-06-10T01:07:27.430Z,2492
2017-06-10T01:08:30.082Z,2480
2017-06-10T01:09:33.149Z,2464
2017-06-10T01:10:35.820Z,2452
2017-06-10T01:11:38.318Z,2440
2017-06-10T01:12:40.997Z,2424
2017-06-10T01:13:43.520Z,2416
2017-06-10T01:14:46.933Z,2404
2017-06-10T01:15:49.802Z,2392
2017-06-10T01:16:52.737Z,2384
2017-06-10T01:17:55.512Z,2372
2017-06-10T01:18:58.338Z,2360
2017-06-10T01:20:01.787Z,2356
2017-06-10T01:21:04.504Z,2344
2017-06-10T01:22:07.325Z,2336
2017-06-10T01:23:10.218Z,2324
2017-06-10T01:24:13.119Z,2320
2017-06-10T01:25:16.546Z,2308
2017-06-10T01:26:19.316Z,2292
2017-06-10T01:27:22.407Z,2284
2017-06-10T01:28:25.380Z,2272
2017-06-10T01:29:30.410Z,2260
2017-06-10T01:30:33.786Z,2248
2017-06-10T01:31:36.755Z,2236
2017-06-10T01:32:39.346Z,2228
2017-06-10T01:33:41.969Z,2216
2017-06-10T01:34:44.612Z,2208
2017-06-10T01:35:47.334Z,2196
2017-06-10T01:36:49.809Z,2188
2017-06-10T01:37:52.349Z,2180
2017-06-10T01:38:56.407Z,2172
2017-06-10T01:39:59.290Z,2164
2017-06-10T01:41:02.196Z,2156
2017-06-10T01:42:05.086Z,2152
2017-06-10T01:43:08.606Z,2144
2017-06-10T01:44:11.188Z,2140
2017-06-10T01:45:14.654Z,2128
2017-06-10T01:46:17.249Z,2120
2017-06-10T01:47:19.932Z,2108
2017-06-10T01:48:23.907Z,2104
2017-06-10T01:49:26.426Z,2092
2017-06-10T01:50:29.080Z,2080
2017-06-10T01:51:32.408Z,2072
2017-06-10T01:52:35.223Z,2060
2017-06-10T01:53:38.618Z,2044
2017-06-10T01:54:41.508Z,2036
2017-06-10T01:55:44.154Z,2024
2017-06-10T01:56:46.773Z,2016
2017-06-10T01:57:49.378Z,2004
2017-06-10T01:58:52.008Z,1992
2017-06-10T01:59:54.617Z,1984
2017-06-10T02:00:59.708Z,1968
2017-06-10T02:02:06.340Z,1956
2017-06-10T02:03:08.917Z,1944
2017-06-10T02:04:11.721Z,1932
2017-06-10T02:05:14.421Z,1924
2017-06-10T02:06:17.249Z,1912
2017-06-10T02:07:20.017Z,1900
2017-06-10T02:08:22.892Z,1884
2017-06-10T02:09:26.849Z,1872
2017-06-10T02:10:29.697Z,1860
2017-06-10T02:11:32.457Z,1844
2017-06-10T02:12:35.232Z,1832
2017-06-10T02:13:38.643Z,1816
2017-06-10T02:14:40.992Z,1804
2017-06-10T02:15:43.629Z,1788
2017-06-10T02:16:46.180Z,1780
2017-06-10T02:17:48.865Z,1764
2017-06-10T02:18:51.396Z,1752
2017-06-10T02:19:53.946Z,1744
2017-06-10T02:20:56.441Z,1732
2017-06-10T02:21:59.050Z,1724
2017-06-10T02:23:01.687Z,1716
2017-06-10T02:24:05.174Z,1708
2017-06-10T02:25:07.738Z,1696
2017-06-10T02:26:10.435Z,1688
2017-06-10T02:27:13.046Z,1676
2017-06-10T02:28:16.697Z,1672
2017-06-10T02:29:19.255Z,1664
2017-06-10T02:30:22.034Z,1656
2017-06-10T02:31:24.638Z,1648
2017-06-10T02:32:27.646Z,1644
2017-06-10T02:33:30.472Z,1636
2017-06-10T02:34:33.386Z,1628
2017-06-10T02:35:36.342Z,1620
2017-06-10T02:36:39.769Z,1616
2017-06-10T02:37:42.477Z,1608
2017-06-10T02:38:45.296Z,1604
2017-06-10T02:39:48.103Z,1596
2017-06-10T02:40:51.556Z,1588
2017-06-10T02:41:54.169Z,1580
2017-06-10T02:42:56.874Z,1572
2017-06-10T02:43:59.364Z,1572
2017-06-10T02:45:01.993Z,1564
2017-06-10T02:46:05.759Z,1556
2017-06-10T02:47:09.295Z,1552
2017-06-10T02:48:11.895Z,1548
2017-06-10T02:49:14.479Z,1540
2017-06-10T02:50:17.869Z,1536
2017-06-10T02:51:20.646Z,1532
2017-06-10T02:52:23.414Z,1528
2017-06-10T02:53:26.504Z,1524
2017-06-10T02:54:29.318Z,1524
2017-06-10T02:55:31.969Z,1520
2017-06-10T02:56:34.582Z,1512
2017-06-10T02:57:37.981Z,1512
2017-06-10T02:58:40.595Z,1508
2017-06-10T02:59:43.732Z,1504
2017-06-10T03:00:47.099Z,1496
2017-06-10T03:01:54.032Z,1500
2017-06-10T03:02:56.663Z,1496
2017-06-10T03:04:01.015Z,1488
2017-06-10T03:05:03.917Z,1488
2017-06-10T03:06:06.691Z,1484
2017-06-10T03:07:09.532Z,1480
2017-06-10T03:08:12.101Z,1480
2017-06-10T03:09:14.632Z,1476
2017-06-10T03:10:17.220Z,1472
2017-06-10T03:11:19.760Z,1468
2017-06-10T03:12:23.082Z,1464
2017-06-10T03:13:25.879Z,1460
2017-06-10T03:14:28.736Z,1460
2017-06-10T03:15:31.480Z,1460
2017-06-10T03:16:33.998Z,1456
2017-06-10T03:17:36.686Z,1460
2017-06-10T03:18:39.347Z,1452
2017-06-10T03:19:41.882Z,1456
2017-06-10T03:20:44.528Z,1456
2017-06-10T03:21:47.066Z,1456
2017-06-10T03:22:51.098Z,1452
2017-06-10T03:23:53.597Z,1452
2017-06-10T03:24:57.739Z,1448
2017-06-10T03:26:00.321Z,1448
2017-06-10T03:27:02.914Z,1448
2017-06-10T03:28:05.465Z,1448
2017-06-10T03:29:08.258Z,1444
2017-06-10T03:30:11.084Z,1444
2017-06-10T03:31:14.588Z,1444
2017-06-10T03:32:17.221Z,1444
2017-06-10T03:33:20.015Z,1444
2017-06-10T03:34:22.839Z,1444
2017-06-10T03:35:25.745Z,1448
2017-06-10T03:36:28.543Z,1448
2017-06-10T03:37:32.350Z,1448
2017-06-10T03:38:35.144Z,1452
2017-06-10T03:39:39.462Z,1452
2017-06-10T03:40:42.299Z,1452
2017-06-10T03:41:45.067Z,1452
2017-06-10T03:42:49.393Z,1456
2017-06-10T03:43:52.197Z,1460
2017-06-10T03:44:54.918Z,1456
2017-06-10T03:45:57.443Z,1460
2017-06-10T03:47:01.721Z,1464
2017-06-10T03:48:04.269Z,1468
2017-06-10T03:49:06.887Z,1468
2017-06-10T03:50:09.709Z,1468
2017-06-10T03:51:12.515Z,1472
2017-06-10T03:52:15.328Z,1476
2017-06-10T03:53:18.911Z,1480
2017-06-10T03:54:22.290Z,1484
2017-06-10T03:55:25.144Z,1484
2017-06-10T03:56:27.908Z,1488
2017-06-10T03:57:30.757Z,1492
2017-06-10T03:58:33.640Z,1500
2017-06-10T03:59:37.126Z,1504
2017-06-10T04:00:44.570Z,1508
2017-06-10T04:01:51.515Z,1508
2017-06-10T04:02:54.414Z,1516
2017-06-10T04:03:57.220Z,1516
2017-06-10T04:04:59.948Z,1524
2017-06-10T04:06:02.872Z,1532
2017-06-10T04:07:05.692Z,1536
2017-06-10T04:08:08.373Z,1540
2017-06-10T04:09:12.077Z,1548
2017-06-10T04:10:15.157Z,1552
2017-06-10T04:11:18.356Z,1560
2017-06-10T04:12:20.875Z,1560
2017-06-10T04:13:23.660Z,1568
2017-06-10T04:14:26.351Z,1572
2017-06-10T04:15:28.971Z,1580
2017-06-10T04:16:32.838Z,1584
2017-06-10T04:17:36.802Z,1592
2017-06-10T04:18:39.661Z,1592
2017-06-10T04:19:44.171Z,1604
2017-06-10T04:20:46.987Z,1612
2017-06-10T04:21:49.922Z,1612
2017-06-10T04:22:52.771Z,1620
2017-06-10T04:23:55.521Z,1632
2017-06-10T04:24:58.425Z,1636
2017-06-10T04:26:02.101Z,1640
2017-06-10T04:27:05.826Z,1652
2017-06-10T04:28:08.574Z,1656
2017-06-10T04:29:11.460Z,1664
2017-06-10T04:30:14.259Z,1672
2017-06-10T04:31:16.823Z,1684
2017-06-10T04:32:19.480Z,1688
2017-06-10T04:33:22.110Z,1700
2017-06-10T04:34:24.986Z,1704
2017-06-10T04:35:27.649Z,1716
2017-06-10T04:36:30.440Z,1724
2017-06-10T04:37:33.221Z,1732
2017-06-10T04:38:36.021Z,1744
2017-06-10T04:39:38.495Z,1752
2017-06-10T04:40:40.999Z,1768
2017-06-10T04:41:43.489Z,1776
2017-06-10T04:42:45.993Z,1784
2017-06-10T04:43:48.526Z,1796
2017-06-10T04:44:51.128Z,1808
2017-06-10T04:45:55.331Z,1824
2017-06-10T04:46:58.412Z,1840
2017-06-10T04:48:01.251Z,1852
2017-06-10T04:49:04.062Z,1864
2017-06-10T04:50:06.880Z,1876
2017-06-10T04:51:09.648Z,1892
2017-06-10T04:52:12.121Z,1908
2017-06-10T04:53:14.798Z,1924
2017-06-10T04:54:17.424Z,1940
2017-06-10T04:55:20.105Z,1956
2017-06-10T04:56:22.718Z,1976
2017-06-10T04:57:25.368Z,1988
2017-06-10T04:58:27.967Z,2004
2017-06-10T04:59:31.959Z,2020
2017-06-10T05:00:39.519Z,2032
2017-06-10T05:01:46.848Z,2052
2017-06-10T05:02:50.919Z,2068
2017-06-10T05:03:53.654Z,2084
2017-06-10T05:04:56.543Z,2096
2017-06-10T05:06:00.031Z,2108
2017-06-10T05:07:02.918Z,2124
2017-06-10T05:08:06.375Z,2144
2017-06-10T05:09:09.183Z,2156
2017-06-10T05:10:12.058Z,2172
2017-06-10T05:11:14.784Z,2184
2017-06-10T05:12:17.611Z,2200
2017-06-10T05:13:20.369Z,2216
2017-06-10T05:14:23.145Z,2236
2017-06-10T05:15:26.097Z,2248
2017-06-10T05:16:28.917Z,2268
2017-06-10T05:17:31.582Z,2284
2017-06-10T05:18:34.183Z,2296
2017-06-10T05:19:36.789Z,2312
2017-06-10T05:20:39.993Z,2328
2017-06-10T05:21:42.515Z,2344
2017-06-10T05:22:45.014Z,2364
2017-06-10T05:23:47.527Z,2380
2017-06-10T05:24:50.075Z,2396
2017-06-10T05:25:52.615Z,2412
2017-06-10T05:26:55.226Z,2432
2017-06-10T05:27:57.758Z,2448
2017-06-10T05:29:00.374Z,2464
2017-06-10T05:30:03.341Z,2480
2017-06-10T05:31:06.095Z,2500
2017-06-10T05:32:09.011Z,2520
2017-06-10T05:33:11.799Z,2536
2017-06-10T05:34:14.408Z,2552
2017-06-10T05:35:16.965Z,2568
2017-06-10T05:36:19.689Z,2584
2017-06-10T05:37:22.265Z,2604
2017-06-10T05:38:25.095Z,2620
2017-06-10T05:39:27.897Z,2636
2017-06-10T05:40:30.765Z,2656
2017-06-10T05:41:33.586Z,2676
2017-06-10T05:42:36.350Z,2692
2017-06-10T05:43:39.303Z,2712
2017-06-10T05:44:41.995Z,2732
2017-06-10T05:45:44.803Z,2748
2017-06-10T05:46:47.352Z,2768
2017-06-10T05:47:50.634Z,2788
2017-06-10T05:48:53.142Z,2808
2017-06-10T05:49:55.663Z,2828
2017-06-10T05:50:58.536Z,2848
2017-06-10T05:52:01.335Z,2872
2017-06-10T05:53:04.844Z,2888
2017-06-10T05:54:07.732Z,2908
2017-06-10T05:55:10.237Z,2924
2017-06-10T05:56:12.765Z,2944
2017-06-10T05:57:15.416Z,2964
2017-06-10T05:58:18.004Z,2984
2017-06-10T05:59:20.597Z,3004
2017-06-10T06:00:24.968Z,3024
2017-06-10T06:01:32.513Z,3044
2017-06-10T06:02:34.815Z,3068
2017-06-10T06:03:37.645Z,3084
2017-06-10T06:04:41.289Z,3100
2017-06-10T06:05:44.109Z,3124
2017-06-10T06:06:46.881Z,3144
2017-06-10T06:07:49.878Z,3160
2017-06-10T06:08:52.852Z,3180
2017-06-10T06:09:55.574Z,3200
2017-06-10T06:10:58.382Z,3220
2017-06-10T06:12:01.069Z,3240
2017-06-10T06:13:03.700Z,3260
2017-06-10T06:14:06.527Z,3284
2017-06-10T06:15:09.187Z,3308
2017-06-10T06:16:12.837Z,3332
2017-06-10T06:17:15.630Z,3356
2017-06-10T06:18:18.449Z,3376
2017-06-10T06:19:21.698Z,3404
2017-06-10T06:20:24.321Z,3424
2017-06-10T06:21:26.806Z,3448
2017-06-10T06:22:29.474Z,3476
2017-06-10T06:23:31.997Z,3500
2017-06-10T06:24:34.588Z,3524
2017-06-10T06:25:37.737Z,3548
2017-06-10T06:26:40.293Z,3572
2017-06-10T06:27:44.229Z,3600
2017-06-10T06:28:47.059Z,3624
2017-06-10T06:29:49.806Z,3648
2017-06-10T06:30:52.791Z,3676
2017-06-10T06:31:55.649Z,3700
2017-06-10T06:32:58.227Z,3728
2017-06-10T06:34:00.809Z,3756
2017-06-10T06:35:03.430Z,3780
2017-06-10T06:36:05.966Z,3808
2017-06-10T06:37:08.792Z,3840
2017-06-10T06:38:11.612Z,3864
2017-06-10T06:39:14.360Z,3892
2017-06-10T06:40:18.331Z,3924
2017-06-10T06:41:21.198Z,3956
2017-06-10T06:42:24.043Z,3980
2017-06-10T06:43:27.709Z,4012
2017-06-10T06:44:30.517Z,4040
2017-06-10T06:45:33.321Z,4072
2017-06-10T06:46:36.943Z,4108
2017-06-10T06:47:39.949Z,4184
2017-06-10T06:48:42.653Z,4552
2017-06-10T06:49:45.219Z,5140
2017-06-10T06:50:47.816Z,6312
2017-06-10T06:51:50.352Z,7420
2017-06-10T06:52:52.980Z,8420
2017-06-10T06:53:56.021Z,9792
2017-06-10T06:54:59.268Z,11992
2017-06-10T06:56:02.602Z,14496
2017-06-10T06:57:05.172Z,14784
2017-06-10T06:58:07.841Z,14464
2017-06-10T06:59:10.489Z,14144
2017-06-10T07:00:14.686Z,14208
2017-06-10T07:01:20.101Z,14752
2017-06-10T07:02:24.592Z,15392
2017-06-10T07:03:28.811Z,16160
2017-06-10T07:04:31.368Z,16832
2017-06-10T07:05:33.905Z,17248
2017-06-10T07:06:36.808Z,17632
2017-06-10T07:07:39.711Z,17728
2017-06-10T07:08:42.717Z,18016
2017-06-10T07:09:45.594Z,18432
2017-06-10T07:10:49.583Z,18336
2017-06-10T07:11:52.329Z,18336
2017-06-10T07:12:55.102Z,18496
2017-06-10T07:13:59.380Z,18912
2017-06-10T07:15:09.729Z,19168
2017-06-10T07:16:13.801Z,18848
2017-06-10T07:17:18.086Z,18880
2017-06-10T07:18:23.883Z,19392
2017-06-10T07:19:26.666Z,19712
2017-06-10T07:20:31.347Z,19808
2017-06-10T07:21:34.738Z,20000
2017-06-10T07:22:38.296Z,20096
2017-06-10T07:23:42.751Z,19904
2017-06-10T07:24:45.790Z,19680
2017-06-10T07:25:50.503Z,19808
2017-06-10T07:26:55.940Z,20704
2017-06-10T07:28:05.036Z,21952
2017-06-10T07:29:12.528Z,22912
2017-06-10T07:30:15.154Z,23136
2017-06-10T07:31:18.583Z,22592
2017-06-10T07:32:24.066Z,22080
2017-06-10T07:33:27.232Z,22592
2017-06-10T07:34:30.070Z,23616
2017-06-10T07:35:32.890Z,24672
2017-06-10T07:36:35.473Z,25280
2017-06-10T07:37:38.063Z,25216
2017-06-10T07:38:40.758Z,24640
2017-06-10T07:39:43.295Z,23840
2017-06-10T07:40:46.546Z,23456
2017-06-10T07:41:49.184Z,23552
2017-06-10T07:42:52.642Z,24096
2017-06-10T07:43:55.262Z,24800
2017-06-10T07:44:57.871Z,24064
2017-06-10T07:46:00.447Z,24992
2017-06-10T07:47:03.223Z,24928
2017-06-10T07:48:05.828Z,24576
2017-06-10T07:49:09.330Z,24544
2017-06-10T07:50:12.139Z,25088
2017-06-10T07:51:15.002Z,25856
2017-06-10T07:52:17.867Z,26272
2017-06-10T07:53:20.970Z,26432
2017-06-10T07:54:23.739Z,26592
2017-06-10T07:55:27.360Z,26528
2017-06-10T07:56:30.086Z,26336
2017-06-10T07:57:32.951Z,26368
2017-06-10T07:58:35.784Z,26816
2017-06-10T07:59:38.679Z,27200
2017-06-10T08:00:45.334Z,27872
2017-06-10T08:01:53.523Z,28352
2017-06-10T08:02:56.227Z,28640
2017-06-10T08:03:59.894Z,28960
2017-06-10T08:05:02.793Z,29280
2017-06-10T08:06:05.384Z,29536
2017-06-10T08:07:07.992Z,29920
2017-06-10T08:08:10.579Z,30528
2017-06-10T08:09:13.145Z,30976
2017-06-10T08:10:15.828Z,31072
2017-06-10T08:11:18.359Z,31264
2017-06-10T08:12:20.979Z,31296
2017-06-10T08:13:23.492Z,31232
2017-06-10T08:14:26.377Z,31520
2017-06-10T08:15:28.970Z,31808
2017-06-10T08:16:31.551Z,32448
2017-06-10T08:17:34.147Z,33248
2017-06-10T08:18:36.953Z,34304
2017-06-10T08:19:39.819Z,35456
2017-06-10T08:20:42.695Z,36704
2017-06-10T08:21:45.525Z,37664
2017-06-10T08:22:48.048Z,37536
2017-06-10T08:23:51.156Z,37152
2017-06-10T08:24:53.575Z,36896
2017-06-10T08:25:56.239Z,36960
2017-06-10T08:26:59.119Z,37696
2017-06-10T08:28:01.508Z,38944
2017-06-10T08:29:04.015Z,40032
2017-06-10T08:30:06.566Z,40096
2017-06-10T08:31:09.229Z,39424
2017-06-10T08:32:11.886Z,38752
2017-06-10T08:33:14.508Z,37696
2017-06-10T08:34:17.133Z,37600
2017-06-10T08:35:19.683Z,37952
2017-06-10T08:36:22.286Z,38656
2017-06-10T08:37:24.884Z,39008
2017-06-10T08:38:27.501Z,39008
2017-06-10T08:39:30.392Z,38752
2017-06-10T08:40:33.108Z,37728
2017-06-10T08:41:35.899Z,36960
2017-06-10T08:42:38.628Z,36608
2017-06-10T08:43:41.365Z,37024
2017-06-10T08:44:44.101Z,38016
2017-06-10T08:45:47.389Z,39552
2017-06-10T08:46:51.234Z,40672
2017-06-10T08:47:54.121Z,41376
2017-06-10T08:48:56.969Z,40960
2017-06-10T08:49:59.687Z,40736
2017-06-10T08:51:02.570Z,40384
2017-06-10T08:52:05.056Z,40640
2017-06-10T08:53:07.620Z,41504
2017-06-10T08:54:11.622Z,42912
2017-06-10T08:55:14.315Z,44416
2017-06-10T08:56:17.256Z,45248
2017-06-10T08:57:20.079Z,44960
2017-06-10T08:58:23.444Z,44160
2017-06-10T08:59:26.392Z,43904
2017-06-10T09:00:32.286Z,44352
2017-06-10T09:01:39.717Z,46048
2017-06-10T09:02:42.170Z,48832
2017-06-10T09:03:44.922Z,51200
2017-06-10T09:04:47.606Z,52608
2017-06-10T09:05:50.207Z,53696
2017-06-10T09:06:52.721Z,53600
2017-06-10T09:07:55.429Z,52448
2017-06-10T09:08:58.219Z,51584
2017-06-10T09:10:01.065Z,51584
2017-06-10T09:11:04.534Z,52096
2017-06-10T09:12:08.360Z,52672
2017-06-10T09:13:10.958Z,52960
2017-06-10T09:14:13.609Z,52800
2017-06-10T09:15:16.201Z,51744
2017-06-10T09:16:18.811Z,50336
2017-06-10T09:17:21.792Z,49344
2017-06-10T09:18:24.618Z,49376
2017-06-10T09:19:27.440Z,50048
2017-06-10T09:20:30.258Z,50720
2017-06-10T09:21:33.183Z,51008
2017-06-10T09:22:35.990Z,50944
2017-06-10T09:23:38.711Z,50464
2017-06-10T09:24:41.544Z,49888
2017-06-10T09:25:44.034Z,50208
2017-06-10T09:26:46.681Z,51712
2017-06-10T09:27:49.351Z,54656
2017-06-10T09:28:51.894Z,57248
2017-06-10T09:29:54.403Z,58592
2017-06-10T09:30:56.905Z,58432
2017-06-10T09:32:00.844Z,57504
2017-06-10T09:33:03.400Z,56768
2017-06-10T09:34:06.047Z,57408
2017-06-10T09:35:08.646Z,58944
2017-06-10T09:36:11.260Z,60384
2017-06-10T09:37:13.909Z,61824
2017-06-10T09:38:16.705Z,62400
2017-06-10T09:39:19.627Z,62496
2017-06-10T09:40:22.596Z,61792
2017-06-10T09:41:25.446Z,60864
2017-06-10T09:42:28.295Z,59456
2017-06-10T09:43:31.168Z,58048
2017-06-10T09:44:34.025Z,57728
2017-06-10T09:45:36.861Z,58464
2017-06-10T09:46:39.705Z,59808
2017-06-10T09:47:42.557Z,61408
2017-06-10T09:48:45.382Z,63168
2017-06-10T09:49:48.393Z,64352
2017-06-10T09:50:51.164Z,65728
2017-06-10T09:51:53.943Z,67168
2017-06-10T09:52:56.956Z,68224
2017-06-10T09:53:59.746Z,69760
2017-06-10T09:55:02.426Z,70400
2017-06-10T09:56:05.022Z,71520
2017-06-10T09:57:07.720Z,72576
2017-06-10T09:58:10.269Z,73216
2017-06-10T09:59:12.836Z,73632
2017-06-10T10:00:20.098Z,72928
2017-06-10T10:01:27.216Z,71712
2017-06-10T10:02:31.766Z,69792
2017-06-10T10:03:33.993Z,67968
2017-06-10T10:04:36.575Z,67808
2017-06-10T10:05:39.128Z,69792
2017-06-10T10:06:41.632Z,72608
2017-06-10T10:07:44.527Z,75200
2017-06-10T10:08:47.347Z,77856
2017-06-10T10:09:50.275Z,78528
2017-06-10T10:10:53.045Z,78752
2017-06-10T10:11:55.810Z,78304
2017-06-10T10:12:58.443Z,76704
2017-06-10T10:14:01.274Z,74496
2017-06-10T10:15:03.800Z,72352
2017-06-10T10:16:06.596Z,70592
2017-06-10T10:17:09.386Z,69376
2017-06-10T10:18:12.313Z,69248
2017-06-10T10:19:17.502Z,70688
2017-06-10T10:20:20.386Z,72288
2017-06-10T10:21:23.225Z,73696
2017-06-10T10:22:26.015Z,74080
2017-06-10T10:23:28.830Z,73344
2017-06-10T10:24:31.404Z,71968
2017-06-10T10:25:34.199Z,70880
2017-06-10T10:26:36.773Z,70464
2017-06-10T10:27:39.459Z,71264
2017-06-10T10:28:42.251Z,71584
2017-06-10T10:29:44.853Z,72128
2017-06-10T10:30:47.699Z,73152
2017-06-10T10:31:50.529Z,73088
2017-06-10T10:32:53.149Z,72064
2017-06-10T10:33:55.708Z,72480
2017-06-10T10:34:58.280Z,75072
2017-06-10T10:36:00.939Z,77440
2017-06-10T10:37:03.482Z,78304
2017-06-10T10:38:06.145Z,79296
2017-06-10T10:39:08.748Z,80192
2017-06-10T10:40:11.347Z,79456
2017-06-10T10:41:14.210Z,75360
2017-06-10T10:42:16.989Z,71072
2017-06-10T10:43:19.838Z,68832
2017-06-10T10:44:22.734Z,67072
2017-06-10T10:45:25.215Z,66464
2017-06-10T10:46:27.779Z,69408
2017-06-10T10:47:30.637Z,74976
2017-06-10T10:48:33.216Z,78880
2017-06-10T10:49:36.039Z,80000
2017-06-10T10:50:38.975Z,79808
2017-06-10T10:51:41.729Z,78688
2017-06-10T10:52:44.583Z,76512
2017-06-10T10:53:47.433Z,75104
2017-06-10T10:54:50.353Z,75136
2017-06-10T10:55:53.206Z,77088
2017-06-10T10:56:56.099Z,80224
2017-06-10T10:57:58.693Z,83840
2017-06-10T10:59:01.376Z,86144
2017-06-10T11:00:05.847Z,86560
2017-06-10T11:01:11.849Z,87200
2017-06-10T11:02:18.963Z,86208
2017-06-10T11:03:21.557Z,83840
2017-06-10T11:04:25.905Z,80448
2017-06-10T11:05:28.687Z,76672
2017-06-10T11:06:31.243Z,75328
2017-06-10T11:07:33.925Z,75648
2017-06-10T11:08:36.620Z,77024
2017-06-10T11:09:39.243Z,79552
2017-06-10T11:10:41.901Z,84480
2017-06-10T11:11:44.455Z,90368
2017-06-10T11:12:47.103Z,94816
2017-06-10T11:13:49.817Z,97632
2017-06-10T11:14:52.658Z,98400
2017-06-10T11:15:55.260Z,97216
2017-06-10T11:16:57.829Z,92544
2017-06-10T11:18:00.387Z,86880
2017-06-10T11:19:03.219Z,82112
2017-06-10T11:20:06.018Z,78688
2017-06-10T11:21:08.861Z,76192
2017-06-10T11:22:11.695Z,77888
2017-06-10T11:23:14.534Z,82944
2017-06-10T11:24:17.319Z,88928
2017-06-10T11:25:20.227Z,93984
2017-06-10T11:26:23.116Z,98880
2017-06-10T11:27:25.928Z,101792
2017-06-10T11:28:28.765Z,102560
2017-06-10T11:29:31.684Z,101184
2017-06-10T11:30:34.464Z,97536
2017-06-10T11:31:37.291Z,93856
2017-06-10T11:32:40.010Z,90240
2017-06-10T11:33:42.804Z,87968
2017-06-10T11:34:45.352Z,87840
2017-06-10T11:35:48.078Z,90048
2017-06-10T11:36:50.707Z,92704
2017-06-10T11:37:53.277Z,94528
2017-06-10T11:38:55.827Z,95968
2017-06-10T11:39:58.438Z,97344
2017-06-10T11:41:01.009Z,97504
2017-06-10T11:42:03.853Z,96864
2017-06-10T11:43:06.471Z,96288
2017-06-10T11:44:09.197Z,94880
2017-06-10T11:45:11.921Z,94592
2017-06-10T11:46:14.617Z,94208
2017-06-10T11:47:17.329Z,93568
2017-06-10T11:48:19.973Z,93088
2017-06-10T11:49:22.615Z,93792
2017-06-10T11:50:25.231Z,92928
2017-06-10T11:51:27.741Z,91968
2017-06-10T11:52:30.414Z,92096
2017-06-10T11:53:33.165Z,93504
2017-06-10T11:54:35.785Z,96032
2017-06-10T11:55:38.336Z,97664
2017-06-10T11:56:41.282Z,97568
2017-06-10T11:57:43.826Z,97056
2017-06-10T11:58:46.578Z,95296
2017-06-10T11:59:49.267Z,93120
2017-06-10T12:00:52.739Z,92032
2017-06-10T12:01:58.097Z,92384
2017-06-10T12:03:00.532Z,95136
2017-06-10T12:04:03.076Z,97600
2017-06-10T12:05:05.788Z,100256
2017-06-10T12:06:08.504Z,103392
2017-06-10T12:07:11.239Z,105632
2017-06-10T12:08:13.964Z,105920
2017-06-10T12:09:16.629Z,105248
2017-06-10T12:10:19.302Z,103200
2017-06-10T12:11:22.029Z,99232
2017-06-10T12:12:24.643Z,94336
2017-06-10T12:13:27.351Z,90912
2017-06-10T12:14:30.090Z,90240
2017-06-10T12:15:32.788Z,91520
2017-06-10T12:16:35.494Z,92832
2017-06-10T12:17:38.125Z,96032
2017-06-10T12:18:40.810Z,98624
2017-06-10T12:19:43.374Z,99072
2017-06-10T12:20:46.033Z,99008
2017-06-10T12:21:48.550Z,99232
2017-06-10T12:22:51.211Z,99904
2017-06-10T12:23:53.774Z,100256
2017-06-10T12:24:56.468Z,100896
2017-06-10T12:25:59.178Z,100832
2017-06-10T12:27:01.831Z,100896
2017-06-10T12:28:04.494Z,100992
2017-06-10T12:29:07.114Z,99712
2017-06-10T12:30:09.813Z,96512
2017-06-10T12:31:12.448Z,93216
2017-06-10T12:32:15.113Z,90752
2017-06-10T12:33:17.887Z,90080
2017-06-10T12:34:20.555Z,89984
2017-06-10T12:35:23.215Z,93344
2017-06-10T12:36:25.886Z,97088
2017-06-10T12:37:28.441Z,100096
2017-06-10T12:38:31.120Z,102048
2017-06-10T12:39:34.700Z,103712
2017-06-10T12:40:37.299Z,105504
2017-06-10T12:41:39.920Z,104192
2017-06-10T12:42:42.622Z,100064
2017-06-10T12:43:45.327Z,97568
2017-06-10T12:44:48.035Z,96832
2017-06-10T12:45:50.747Z,97792
2017-06-10T12:46:53.311Z,98784
2017-06-10T12:47:55.866Z,99584
2017-06-10T12:48:58.559Z,96768
2017-06-10T12:50:01.234Z,90688
2017-06-10T12:51:03.840Z,86144
2017-06-10T12:52:06.389Z,85632
2017-06-10T12:53:09.009Z,88608
2017-06-10T12:54:11.656Z,94208
2017-06-10T12:55:14.263Z,103008
2017-06-10T12:56:16.902Z,109856
2017-06-10T12:57:19.619Z,112256
2017-06-10T12:58:22.364Z,109312
2017-06-10T12:59:25.065Z,101344
2017-06-10T13:00:29.824Z,92096
2017-06-10T13:01:38.227Z,81728
2017-06-10T13:02:43.618Z,77536
2017-06-10T13:03:46.021Z,80032
2017-06-10T13:04:48.723Z,85248
2017-06-10T13:05:51.465Z,91040
2017-06-10T13:06:54.182Z,94560
2017-06-10T13:07:56.698Z,97984
2017-06-10T13:08:59.317Z,95808
2017-06-10T13:10:02.025Z,95040
2017-06-10T13:11:04.626Z,94688
2017-06-10T13:12:07.245Z,94976
2017-06-10T13:13:09.797Z,95200
2017-06-10T13:14:12.349Z,94912
2017-06-10T13:15:15.049Z,95616
2017-06-10T13:16:17.857Z,95808
2017-06-10T13:17:20.595Z,95328
2017-06-10T13:18:23.151Z,95488
2017-06-10T13:19:25.777Z,96448
2017-06-10T13:20:28.423Z,96448
2017-06-10T13:21:31.128Z,95008
2017-06-10T13:22:33.894Z,95520
2017-06-10T13:23:36.477Z,99104
2017-06-10T13:24:39.089Z,103648
2017-06-10T13:25:41.636Z,107296
2017-06-10T13:26:44.258Z,108128
2017-06-10T13:27:46.838Z,107328
2017-06-10T13:28:49.556Z,105536
2017-06-10T13:29:52.262Z,102144
2017-06-10T13:30:54.866Z,99264
2017-06-10T13:31:57.590Z,101184
2017-06-10T13:33:00.202Z,104832
2017-06-10T13:34:02.821Z,106720
2017-06-10T13:35:05.433Z,105408
2017-06-10T13:36:08.052Z,102112
2017-06-10T13:37:10.862Z,96608
2017-06-10T13:38:13.473Z,91392
2017-06-10T13:39:16.032Z,88864
2017-06-10T13:40:18.597Z,90880
2017-06-10T13:41:21.390Z,96160
2017-06-10T13:42:24.109Z,101280
2017-06-10T13:43:26.823Z,104832